sensor_id;sensor_type;location;lat;lon;timestamp;P1;durP1;ratioP1;P2;durP2;ratioP2
56173;SDS011;42058;52.308;20.924;2022-12-05T00:00:53;24.47;;;13.22;;
56173;SDS011;42058;52.308;20.924;2022-12-05T00:03:20;23.98;;;12.25;;
56173;SDS011;42058;52.308;20.924;2022-12-05T00:05:47;18.40;;;10.60;;
56173;SDS011;42058;52.308;20.924;2022-12-05T00:08:13;21.48;;;11.57;;
56173;SDS011;42058;52.308;20.924;2022-12-05T00:10:39;26.95;;;12.28;;
56173;SDS011;42058;52.308;20.924;2022-12-05T00:13:05;22.22;;;12.28;;
56173;SDS011;42058;52.308;20.924;2022-12-05T00:15:35;21.73;;;12.03;;
56173;SDS011;42058;52.308;20.924;2022-12-05T00:18:04;24.87;;;12.60;;
56173;SDS011;42058;52.308;20.924;2022-12-05T00:20:30;20.85;;;10.75;;
56173;SDS011;42058;52.308;20.924;2022-12-05T00:22:57;28.30;;;12.70;;
56173;SDS011;42058;52.308;20.924;2022-12-05T00:25:23;22.62;;;11.40;;
56173;SDS011;42058;52.308;20.924;2022-12-05T00:27:49;21.65;;;11.90;;
56173;SDS011;42058;52.308;20.924;2022-12-05T00:30:15;22.58;;;12.10;;
56173;SDS011;42058;52.308;20.924;2022-12-05T00:32:41;25.92;;;13.48;;
56173;SDS011;42058;52.308;20.924;2022-12-05T00:35:07;22.73;;;12.33;;
56173;SDS011;42058;52.308;20.924;2022-12-05T00:37:34;23.18;;;12.28;;
56173;SDS011;42058;52.308;20.924;2022-12-05T00:40:00;22.02;;;11.97;;
56173;SDS011;42058;52.308;20.924;2022-12-05T00:42:26;23.40;;;12.78;;
56173;SDS011;42058;52.308;20.924;2022-12-05T00:44:52;21.75;;;11.90;;
56173;SDS011;42058;52.308;20.924;2022-12-05T00:47:19;26.05;;;13.10;;
56173;SDS011;42058;52.308;20.924;2022-12-05T00:49:45;25.60;;;12.55;;
56173;SDS011;42058;52.308;20.924;2022-12-05T00:52:11;22.37;;;11.70;;
56173;SDS011;42058;52.308;20.924;2022-12-05T00:54:38;27.10;;;12.40;;
56173;SDS011;42058;52.308;20.924;2022-12-05T00:57:04;23.62;;;12.03;;
56173;SDS011;42058;52.308;20.924;2022-12-05T00:59:30;23.07;;;11.57;;
56173;SDS011;42058;52.308;20.924;2022-12-05T01:01:56;26.68;;;13.25;;
56173;SDS011;42058;52.308;20.924;2022-12-05T01:04:23;19.67;;;10.82;;
56173;SDS011;42058;52.308;20.924;2022-12-05T01:06:52;24.95;;;13.35;;
56173;SDS011;42058;52.308;20.924;2022-12-05T01:09:20;23.55;;;11.78;;
56173;SDS011;42058;52.308;20.924;2022-12-05T01:11:47;24.05;;;13.00;;
56173;SDS011;42058;52.308;20.924;2022-12-05T01:14:15;23.55;;;12.82;;
56173;SDS011;42058;52.308;20.924;2022-12-05T01:16:44;22.02;;;11.70;;
56173;SDS011;42058;52.308;20.924;2022-12-05T01:19:23;22.37;;;12.50;;
56173;SDS011;42058;52.308;20.924;2022-12-05T01:21:49;20.75;;;11.63;;
56173;SDS011;42058;52.308;20.924;2022-12-05T01:24:15;23.83;;;13.48;;
56173;SDS011;42058;52.308;20.924;2022-12-05T01:26:43;24.57;;;13.28;;
56173;SDS011;42058;52.308;20.924;2022-12-05T01:29:11;21.05;;;11.73;;
56173;SDS011;42058;52.308;20.924;2022-12-05T01:31:41;20.68;;;11.08;;
56173;SDS011;42058;52.308;20.924;2022-12-05T01:34:07;22.65;;;13.10;;
56173;SDS011;42058;52.308;20.924;2022-12-05T01:36:37;25.75;;;13.50;;
56173;SDS011;42058;52.308;20.924;2022-12-05T01:39:04;21.30;;;11.55;;
56173;SDS011;42058;52.308;20.924;2022-12-05T01:41:33;21.77;;;13.10;;
56173;SDS011;42058;52.308;20.924;2022-12-05T01:44:06;22.77;;;12.43;;
56173;SDS011;42058;52.308;20.924;2022-12-05T01:46:46;26.05;;;13.50;;
56173;SDS011;42058;52.308;20.924;2022-12-05T01:49:16;22.73;;;12.50;;
56173;SDS011;42058;52.308;20.924;2022-12-05T01:51:52;25.85;;;13.13;;
56173;SDS011;42058;52.308;20.924;2022-12-05T01:54:18;23.07;;;12.55;;
56173;SDS011;42058;52.308;20.924;2022-12-05T01:56:49;30.45;;;14.00;;
56173;SDS011;42058;52.308;20.924;2022-12-05T01:59:18;26.50;;;14.05;;
56173;SDS011;42058;52.308;20.924;2022-12-05T02:01:46;22.05;;;12.88;;
56173;SDS011;42058;52.308;20.924;2022-12-05T02:04:12;23.60;;;12.35;;
56173;SDS011;42058;52.308;20.924;2022-12-05T02:06:38;24.70;;;13.60;;
56173;SDS011;42058;52.308;20.924;2022-12-05T02:09:04;26.07;;;13.32;;
56173;SDS011;42058;52.308;20.924;2022-12-05T02:11:31;27.90;;;14.07;;
56173;SDS011;42058;52.308;20.924;2022-12-05T02:14:11;30.27;;;14.23;;
56173;SDS011;42058;52.308;20.924;2022-12-05T02:27:59;22.13;;;11.50;;
56173;SDS011;42058;52.308;20.924;2022-12-05T02:30:49;23.60;;;13.30;;
56173;SDS011;42058;52.308;20.924;2022-12-05T02:33:35;23.42;;;13.10;;
56173;SDS011;42058;52.308;20.924;2022-12-05T02:38:45;23.90;;;13.13;;
56173;SDS011;42058;52.308;20.924;2022-12-05T02:41:34;22.02;;;11.75;;
56173;SDS011;42058;52.308;20.924;2022-12-05T02:44:08;21.75;;;12.35;;
56173;SDS011;42058;52.308;20.924;2022-12-05T02:46:40;24.05;;;11.83;;
56173;SDS011;42058;52.308;20.924;2022-12-05T02:49:09;20.23;;;11.93;;
56173;SDS011;42058;52.308;20.924;2022-12-05T02:51:44;21.42;;;10.38;;
56173;SDS011;42058;52.308;20.924;2022-12-05T02:54:11;23.02;;;13.18;;
56173;SDS011;42058;52.308;20.924;2022-12-05T02:56:45;24.05;;;12.60;;
56173;SDS011;42058;52.308;20.924;2022-12-05T02:59:12;25.92;;;13.65;;
56173;SDS011;42058;52.308;20.924;2022-12-05T03:01:38;23.95;;;13.08;;
56173;SDS011;42058;52.308;20.924;2022-12-05T03:04:05;24.43;;;13.90;;
56173;SDS011;42058;52.308;20.924;2022-12-05T03:06:35;17.52;;;10.50;;
56173;SDS011;42058;52.308;20.924;2022-12-05T03:09:07;17.05;;;10.75;;
56173;SDS011;42058;52.308;20.924;2022-12-05T03:11:41;18.52;;;10.53;;
56173;SDS011;42058;52.308;20.924;2022-12-05T03:14:46;18.73;;;10.93;;
56173;SDS011;42058;52.308;20.924;2022-12-05T03:17:29;18.40;;;10.45;;
56173;SDS011;42058;52.308;20.924;2022-12-05T03:22:42;20.02;;;11.70;;
56173;SDS011;42058;52.308;20.924;2022-12-05T03:25:24;21.17;;;12.23;;
56173;SDS011;42058;52.308;20.924;2022-12-05T03:28:01;22.17;;;12.75;;
56173;SDS011;42058;52.308;20.924;2022-12-05T03:30:37;20.30;;;11.78;;
56173;SDS011;42058;52.308;20.924;2022-12-05T03:33:04;19.55;;;11.43;;
56173;SDS011;42058;52.308;20.924;2022-12-05T03:35:50;22.62;;;12.40;;
56173;SDS011;42058;52.308;20.924;2022-12-05T03:38:42;18.32;;;10.45;;
56173;SDS011;42058;52.308;20.924;2022-12-05T03:41:24;17.02;;;10.50;;
56173;SDS011;42058;52.308;20.924;2022-12-05T03:43:57;19.62;;;10.65;;
56173;SDS011;42058;52.308;20.924;2022-12-05T03:46:53;24.50;;;12.63;;
56173;SDS011;42058;52.308;20.924;2022-12-05T03:49:44;25.43;;;11.90;;
56173;SDS011;42058;52.308;20.924;2022-12-05T03:52:17;21.33;;;12.18;;
56173;SDS011;42058;52.308;20.924;2022-12-05T03:54:58;22.00;;;12.68;;
56173;SDS011;42058;52.308;20.924;2022-12-05T04:00:00;21.57;;;11.88;;
56173;SDS011;42058;52.308;20.924;2022-12-05T04:05:26;20.02;;;11.38;;
56173;SDS011;42058;52.308;20.924;2022-12-05T04:07:59;18.15;;;11.40;;
56173;SDS011;42058;52.308;20.924;2022-12-05T04:10:35;19.55;;;11.05;;
56173;SDS011;42058;52.308;20.924;2022-12-05T04:13:22;16.90;;;10.63;;
56173;SDS011;42058;52.308;20.924;2022-12-05T04:15:58;18.52;;;12.00;;
56173;SDS011;42058;52.308;20.924;2022-12-05T04:19:15;15.70;;;10.32;;
56173;SDS011;42058;52.308;20.924;2022-12-05T04:21:51;20.57;;;11.75;;
56173;SDS011;42058;52.308;20.924;2022-12-05T04:24:21;17.27;;;9.83;;
56173;SDS011;42058;52.308;20.924;2022-12-05T04:30:07;20.50;;;11.73;;
56173;SDS011;42058;52.308;20.924;2022-12-05T04:32:51;17.48;;;10.60;;
56173;SDS011;42058;52.308;20.924;2022-12-05T04:35:33;16.87;;;10.18;;
56173;SDS011;42058;52.308;20.924;2022-12-05T04:38:16;18.50;;;10.45;;
56173;SDS011;42058;52.308;20.924;2022-12-05T04:40:59;18.32;;;10.58;;
56173;SDS011;42058;52.308;20.924;2022-12-05T04:43:34;18.57;;;10.93;;
56173;SDS011;42058;52.308;20.924;2022-12-05T04:45:59;23.02;;;12.50;;
56173;SDS011;42058;52.308;20.924;2022-12-05T04:48:30;21.57;;;11.60;;
56173;SDS011;42058;52.308;20.924;2022-12-05T04:51:00;22.93;;;12.78;;
56173;SDS011;42058;52.308;20.924;2022-12-05T04:53:30;17.55;;;10.10;;
56173;SDS011;42058;52.308;20.924;2022-12-05T04:55:58;20.82;;;11.30;;
56173;SDS011;42058;52.308;20.924;2022-12-05T04:58:26;18.35;;;9.75;;
56173;SDS011;42058;52.308;20.924;2022-12-05T05:03:42;19.12;;;11.57;;
56173;SDS011;42058;52.308;20.924;2022-12-05T05:06:21;14.40;;;8.73;;
56173;SDS011;42058;52.308;20.924;2022-12-05T05:08:48;16.52;;;9.85;;
56173;SDS011;42058;52.308;20.924;2022-12-05T05:13:48;20.48;;;10.78;;
56173;SDS011;42058;52.308;20.924;2022-12-05T05:16:17;20.25;;;10.70;;
56173;SDS011;42058;52.308;20.924;2022-12-05T05:18:55;17.60;;;10.25;;
56173;SDS011;42058;52.308;20.924;2022-12-05T05:21:29;16.65;;;10.63;;
56173;SDS011;42058;52.308;20.924;2022-12-05T05:24:00;17.20;;;10.08;;
56173;SDS011;42058;52.308;20.924;2022-12-05T05:26:27;16.48;;;9.75;;
56173;SDS011;42058;52.308;20.924;2022-12-05T05:28:57;19.62;;;10.88;;
56173;SDS011;42058;52.308;20.924;2022-12-05T05:31:23;17.82;;;10.05;;
56173;SDS011;42058;52.308;20.924;2022-12-05T05:33:50;18.48;;;10.53;;
56173;SDS011;42058;52.308;20.924;2022-12-05T05:36:20;18.95;;;10.72;;
56173;SDS011;42058;52.308;20.924;2022-12-05T05:38:51;19.05;;;10.68;;
56173;SDS011;42058;52.308;20.924;2022-12-05T05:41:21;17.98;;;9.93;;
56173;SDS011;42058;52.308;20.924;2022-12-05T05:43:50;16.42;;;9.43;;
56173;SDS011;42058;52.308;20.924;2022-12-05T05:46:19;18.12;;;10.20;;
56173;SDS011;42058;52.308;20.924;2022-12-05T05:48:48;16.25;;;9.80;;
56173;SDS011;42058;52.308;20.924;2022-12-05T05:51:15;18.98;;;9.65;;
56173;SDS011;42058;52.308;20.924;2022-12-05T05:53:44;16.20;;;10.05;;
56173;SDS011;42058;52.308;20.924;2022-12-05T05:56:13;19.32;;;11.08;;
56173;SDS011;42058;52.308;20.924;2022-12-05T05:58:41;15.43;;;10.13;;
56173;SDS011;42058;52.308;20.924;2022-12-05T06:01:13;17.30;;;10.20;;
56173;SDS011;42058;52.308;20.924;2022-12-05T06:03:41;16.67;;;9.18;;
56173;SDS011;42058;52.308;20.924;2022-12-05T06:06:09;16.07;;;9.43;;
56173;SDS011;42058;52.308;20.924;2022-12-05T06:08:38;18.02;;;10.50;;
56173;SDS011;42058;52.308;20.924;2022-12-05T06:11:07;14.45;;;9.40;;
56173;SDS011;42058;52.308;20.924;2022-12-05T06:13:37;16.30;;;10.00;;
56173;SDS011;42058;52.308;20.924;2022-12-05T06:16:04;19.80;;;10.68;;
56173;SDS011;42058;52.308;20.924;2022-12-05T06:18:33;17.35;;;9.90;;
56173;SDS011;42058;52.308;20.924;2022-12-05T06:21:00;15.85;;;9.33;;
56173;SDS011;42058;52.308;20.924;2022-12-05T06:23:26;17.57;;;9.90;;
56173;SDS011;42058;52.308;20.924;2022-12-05T06:25:53;17.35;;;9.68;;
56173;SDS011;42058;52.308;20.924;2022-12-05T06:28:22;18.48;;;10.85;;
56173;SDS011;42058;52.308;20.924;2022-12-05T06:30:50;19.00;;;10.30;;
56173;SDS011;42058;52.308;20.924;2022-12-05T06:33:16;20.27;;;10.68;;
56173;SDS011;42058;52.308;20.924;2022-12-05T06:35:43;19.98;;;11.43;;
56173;SDS011;42058;52.308;20.924;2022-12-05T06:38:10;19.52;;;10.75;;
56173;SDS011;42058;52.308;20.924;2022-12-05T06:40:40;17.92;;;9.65;;
56173;SDS011;42058;52.308;20.924;2022-12-05T06:43:08;22.32;;;11.55;;
56173;SDS011;42058;52.308;20.924;2022-12-05T06:45:38;21.62;;;11.33;;
56173;SDS011;42058;52.308;20.924;2022-12-05T06:48:05;18.42;;;10.40;;
56173;SDS011;42058;52.308;20.924;2022-12-05T06:50:31;17.75;;;10.43;;
56173;SDS011;42058;52.308;20.924;2022-12-05T06:52:58;20.30;;;11.40;;
56173;SDS011;42058;52.308;20.924;2022-12-05T06:55:24;18.82;;;9.95;;
56173;SDS011;42058;52.308;20.924;2022-12-05T06:57:50;20.52;;;11.45;;
56173;SDS011;42058;52.308;20.924;2022-12-05T07:00:16;20.27;;;11.25;;
56173;SDS011;42058;52.308;20.924;2022-12-05T07:03:01;20.62;;;11.43;;
56173;SDS011;42058;52.308;20.924;2022-12-05T07:05:27;21.25;;;10.43;;
56173;SDS011;42058;52.308;20.924;2022-12-05T07:07:53;21.30;;;11.33;;
56173;SDS011;42058;52.308;20.924;2022-12-05T07:10:19;21.87;;;11.55;;
56173;SDS011;42058;52.308;20.924;2022-12-05T07:12:45;18.60;;;10.63;;
56173;SDS011;42058;52.308;20.924;2022-12-05T07:15:11;19.73;;;10.80;;
56173;SDS011;42058;52.308;20.924;2022-12-05T07:17:37;19.05;;;11.43;;
56173;SDS011;42058;52.308;20.924;2022-12-05T07:20:04;25.95;;;13.13;;
56173;SDS011;42058;52.308;20.924;2022-12-05T07:22:33;22.62;;;11.97;;
56173;SDS011;42058;52.308;20.924;2022-12-05T07:25:01;24.15;;;12.80;;
56173;SDS011;42058;52.308;20.924;2022-12-05T07:27:29;21.75;;;11.68;;
56173;SDS011;42058;52.308;20.924;2022-12-05T07:29:55;21.70;;;12.20;;
56173;SDS011;42058;52.308;20.924;2022-12-05T07:32:22;20.43;;;11.65;;
56173;SDS011;42058;52.308;20.924;2022-12-05T07:34:48;21.82;;;12.82;;
56173;SDS011;42058;52.308;20.924;2022-12-05T07:37:14;21.35;;;12.23;;
56173;SDS011;42058;52.308;20.924;2022-12-05T07:39:40;24.10;;;12.05;;
56173;SDS011;42058;52.308;20.924;2022-12-05T07:42:06;23.75;;;11.75;;
56173;SDS011;42058;52.308;20.924;2022-12-05T07:44:32;21.17;;;12.43;;
56173;SDS011;42058;52.308;20.924;2022-12-05T07:47:00;25.15;;;13.08;;
56173;SDS011;42058;52.308;20.924;2022-12-05T07:49:26;21.90;;;12.18;;
56173;SDS011;42058;52.308;20.924;2022-12-05T07:51:52;21.87;;;12.03;;
56173;SDS011;42058;52.308;20.924;2022-12-05T07:54:18;24.75;;;12.75;;
56173;SDS011;42058;52.308;20.924;2022-12-05T07:56:45;23.92;;;12.65;;
56173;SDS011;42058;52.308;20.924;2022-12-05T07:59:11;26.05;;;13.00;;
56173;SDS011;42058;52.308;20.924;2022-12-05T08:01:37;21.87;;;11.57;;
56173;SDS011;42058;52.308;20.924;2022-12-05T08:04:03;23.02;;;12.00;;
56173;SDS011;42058;52.308;20.924;2022-12-05T08:06:29;23.75;;;12.45;;
56173;SDS011;42058;52.308;20.924;2022-12-05T08:08:55;24.45;;;12.75;;
56173;SDS011;42058;52.308;20.924;2022-12-05T08:11:23;23.10;;;12.13;;
56173;SDS011;42058;52.308;20.924;2022-12-05T08:13:54;21.80;;;13.00;;
56173;SDS011;42058;52.308;20.924;2022-12-05T08:16:27;25.75;;;13.08;;
56173;SDS011;42058;52.308;20.924;2022-12-05T08:19:02;24.72;;;12.90;;
56173;SDS011;42058;52.308;20.924;2022-12-05T08:21:30;21.15;;;11.65;;
56173;SDS011;42058;52.308;20.924;2022-12-05T08:23:57;21.23;;;11.55;;
56173;SDS011;42058;52.308;20.924;2022-12-05T08:26:24;21.37;;;11.18;;
56173;SDS011;42058;52.308;20.924;2022-12-05T08:28:54;25.82;;;12.25;;
56173;SDS011;42058;52.308;20.924;2022-12-05T08:31:28;24.12;;;13.15;;
56173;SDS011;42058;52.308;20.924;2022-12-05T08:33:57;26.23;;;12.88;;
56173;SDS011;42058;52.308;20.924;2022-12-05T08:36:26;24.60;;;11.80;;
56173;SDS011;42058;52.308;20.924;2022-12-05T08:38:54;25.52;;;12.90;;
56173;SDS011;42058;52.308;20.924;2022-12-05T08:41:23;23.55;;;12.60;;
56173;SDS011;42058;52.308;20.924;2022-12-05T08:43:52;21.65;;;11.70;;
56173;SDS011;42058;52.308;20.924;2022-12-05T08:46:18;23.90;;;12.68;;
56173;SDS011;42058;52.308;20.924;2022-12-05T08:48:44;23.22;;;12.95;;
56173;SDS011;42058;52.308;20.924;2022-12-05T08:51:10;26.40;;;12.82;;
56173;SDS011;42058;52.308;20.924;2022-12-05T08:53:38;22.37;;;11.88;;
56173;SDS011;42058;52.308;20.924;2022-12-05T08:56:05;25.00;;;12.85;;
56173;SDS011;42058;52.308;20.924;2022-12-05T08:58:33;23.80;;;13.40;;
56173;SDS011;42058;52.308;20.924;2022-12-05T09:01:07;23.85;;;12.55;;
56173;SDS011;42058;52.308;20.924;2022-12-05T09:03:37;23.18;;;12.50;;
56173;SDS011;42058;52.308;20.924;2022-12-05T09:06:07;21.82;;;11.93;;
56173;SDS011;42058;52.308;20.924;2022-12-05T09:08:44;26.62;;;12.85;;
56173;SDS011;42058;52.308;20.924;2022-12-05T09:11:12;26.17;;;14.07;;
56173;SDS011;42058;52.308;20.924;2022-12-05T09:13:46;21.50;;;12.05;;
56173;SDS011;42058;52.308;20.924;2022-12-05T09:16:18;24.18;;;13.10;;
56173;SDS011;42058;52.308;20.924;2022-12-05T09:18:45;23.47;;;12.68;;
56173;SDS011;42058;52.308;20.924;2022-12-05T09:21:14;24.65;;;12.73;;
56173;SDS011;42058;52.308;20.924;2022-12-05T09:23:46;21.73;;;12.15;;
56173;SDS011;42058;52.308;20.924;2022-12-05T09:26:14;28.35;;;13.93;;
56173;SDS011;42058;52.308;20.924;2022-12-05T09:28:43;26.00;;;13.25;;
56173;SDS011;42058;52.308;20.924;2022-12-05T09:31:10;25.70;;;13.55;;
56173;SDS011;42058;52.308;20.924;2022-12-05T09:33:40;23.05;;;12.28;;
56173;SDS011;42058;52.308;20.924;2022-12-05T09:36:11;24.25;;;11.70;;
56173;SDS011;42058;52.308;20.924;2022-12-05T09:38:42;24.72;;;12.90;;
56173;SDS011;42058;52.308;20.924;2022-12-05T09:41:14;24.82;;;12.45;;
56173;SDS011;42058;52.308;20.924;2022-12-05T09:58:19;25.88;;;11.85;;
56173;SDS011;42058;52.308;20.924;2022-12-05T10:00:53;28.07;;;14.68;;
56173;SDS011;42058;52.308;20.924;2022-12-05T10:03:42;27.52;;;14.05;;
56173;SDS011;42058;52.308;20.924;2022-12-05T10:06:13;26.15;;;13.35;;
56173;SDS011;42058;52.308;20.924;2022-12-05T10:09:00;28.40;;;14.55;;
56173;SDS011;42058;52.308;20.924;2022-12-05T10:14:30;34.20;;;13.83;;
56173;SDS011;42058;52.308;20.924;2022-12-05T10:17:24;25.80;;;13.80;;
56173;SDS011;42058;52.308;20.924;2022-12-05T10:23:16;28.32;;;13.98;;
56173;SDS011;42058;52.308;20.924;2022-12-05T10:25:16;30.97;;;15.00;;
56173;SDS011;42058;52.308;20.924;2022-12-05T10:27:47;31.77;;;14.05;;
56173;SDS011;42058;52.308;20.924;2022-12-05T10:30:20;30.20;;;15.03;;
56173;SDS011;42058;52.308;20.924;2022-12-05T10:32:53;31.33;;;14.45;;
56173;SDS011;42058;52.308;20.924;2022-12-05T10:35:26;29.37;;;15.45;;
56173;SDS011;42058;52.308;20.924;2022-12-05T10:37:59;32.63;;;15.70;;
56173;SDS011;42058;52.308;20.924;2022-12-05T10:40:33;34.15;;;16.12;;
56173;SDS011;42058;52.308;20.924;2022-12-05T10:43:06;29.77;;;14.93;;
56173;SDS011;42058;52.308;20.924;2022-12-05T10:45:36;31.10;;;15.08;;
56173;SDS011;42058;52.308;20.924;2022-12-05T10:48:12;28.92;;;14.10;;
56173;SDS011;42058;52.308;20.924;2022-12-05T10:50:41;25.48;;;13.03;;
56173;SDS011;42058;52.308;20.924;2022-12-05T10:53:20;33.98;;;15.20;;
56173;SDS011;42058;52.308;20.924;2022-12-05T10:55:53;30.50;;;14.35;;
56173;SDS011;42058;52.308;20.924;2022-12-05T10:58:29;33.20;;;14.47;;
56173;SDS011;42058;52.308;20.924;2022-12-05T11:00:55;30.72;;;14.73;;
56173;SDS011;42058;52.308;20.924;2022-12-05T11:03:34;30.97;;;15.28;;
56173;SDS011;42058;52.308;20.924;2022-12-05T11:06:01;32.58;;;15.30;;
56173;SDS011;42058;52.308;20.924;2022-12-05T11:08:50;32.80;;;14.58;;
56173;SDS011;42058;52.308;20.924;2022-12-05T11:11:17;32.05;;;13.88;;
56173;SDS011;42058;52.308;20.924;2022-12-05T11:13:50;33.28;;;14.23;;
56173;SDS011;42058;52.308;20.924;2022-12-05T11:16:24;30.10;;;14.18;;
56173;SDS011;42058;52.308;20.924;2022-12-05T11:18:55;30.85;;;14.95;;
56173;SDS011;42058;52.308;20.924;2022-12-05T11:21:21;31.77;;;15.05;;
56173;SDS011;42058;52.308;20.924;2022-12-05T11:23:48;29.15;;;13.83;;
56173;SDS011;42058;52.308;20.924;2022-12-05T11:26:34;32.30;;;13.60;;
56173;SDS011;42058;52.308;20.924;2022-12-05T11:29:02;26.37;;;12.90;;
56173;SDS011;42058;52.308;20.924;2022-12-05T11:31:29;31.23;;;15.45;;
56173;SDS011;42058;52.308;20.924;2022-12-05T11:34:01;30.00;;;14.68;;
56173;SDS011;42058;52.308;20.924;2022-12-05T11:36:45;30.80;;;14.00;;
56173;SDS011;42058;52.308;20.924;2022-12-05T11:39:18;32.60;;;15.50;;
56173;SDS011;42058;52.308;20.924;2022-12-05T11:42:05;33.40;;;14.93;;
56173;SDS011;42058;52.308;20.924;2022-12-05T11:45:24;37.78;;;15.40;;
56173;SDS011;42058;52.308;20.924;2022-12-05T11:50:18;32.00;;;14.50;;
56173;SDS011;42058;52.308;20.924;2022-12-05T11:53:34;39.75;;;15.48;;
56173;SDS011;42058;52.308;20.924;2022-12-05T12:02:17;26.27;;;13.00;;
56173;SDS011;42058;52.308;20.924;2022-12-05T12:07:55;33.70;;;15.10;;
56173;SDS011;42058;52.308;20.924;2022-12-05T12:10:32;32.67;;;13.80;;
56173;SDS011;42058;52.308;20.924;2022-12-05T12:13:23;36.17;;;15.03;;
56173;SDS011;42058;52.308;20.924;2022-12-05T12:16:09;35.30;;;14.85;;
56173;SDS011;42058;52.308;20.924;2022-12-05T12:19:06;35.03;;;16.30;;
56173;SDS011;42058;52.308;20.924;2022-12-05T12:32:48;38.67;;;15.65;;
56173;SDS011;42058;52.308;20.924;2022-12-05T12:38:00;36.13;;;16.12;;
56173;SDS011;42058;52.308;20.924;2022-12-05T12:40:52;36.80;;;16.23;;
56173;SDS011;42058;52.308;20.924;2022-12-05T12:44:23;33.10;;;14.45;;
56173;SDS011;42058;52.308;20.924;2022-12-05T12:50:23;33.33;;;15.13;;
56173;SDS011;42058;52.308;20.924;2022-12-05T12:53:18;37.28;;;15.85;;
56173;SDS011;42058;52.308;20.924;2022-12-05T12:58:56;39.42;;;17.37;;
56173;SDS011;42058;52.308;20.924;2022-12-05T13:04:29;35.92;;;16.52;;
56173;SDS011;42058;52.308;20.924;2022-12-05T13:09:45;33.25;;;16.05;;
56173;SDS011;42058;52.308;20.924;2022-12-05T13:12:28;45.60;;;16.70;;
56173;SDS011;42058;52.308;20.924;2022-12-05T13:14:58;35.15;;;14.80;;
56173;SDS011;42058;52.308;20.924;2022-12-05T13:17:28;36.68;;;14.80;;
56173;SDS011;42058;52.308;20.924;2022-12-05T13:19:57;38.90;;;15.50;;
56173;SDS011;42058;52.308;20.924;2022-12-05T13:22:25;35.50;;;15.80;;
56173;SDS011;42058;52.308;20.924;2022-12-05T13:24:53;35.58;;;16.23;;
56173;SDS011;42058;52.308;20.924;2022-12-05T13:27:21;37.73;;;16.75;;
56173;SDS011;42058;52.308;20.924;2022-12-05T13:29:58;36.88;;;16.40;;
56173;SDS011;42058;52.308;20.924;2022-12-05T13:32:31;37.03;;;15.83;;
56173;SDS011;42058;52.308;20.924;2022-12-05T13:35:10;42.15;;;17.45;;
56173;SDS011;42058;52.308;20.924;2022-12-05T13:37:44;36.05;;;17.37;;
56173;SDS011;42058;52.308;20.924;2022-12-05T13:40:32;37.28;;;15.13;;
56173;SDS011;42058;52.308;20.924;2022-12-05T13:43:25;40.60;;;16.57;;
56173;SDS011;42058;52.308;20.924;2022-12-05T13:46:01;35.10;;;16.07;;
56173;SDS011;42058;52.308;20.924;2022-12-05T13:48:37;39.35;;;17.00;;
56173;SDS011;42058;52.308;20.924;2022-12-05T13:51:10;36.25;;;15.25;;
56173;SDS011;42058;52.308;20.924;2022-12-05T13:53:41;40.23;;;17.48;;
56173;SDS011;42058;52.308;20.924;2022-12-05T13:58:47;41.18;;;17.32;;
56173;SDS011;42058;52.308;20.924;2022-12-05T14:04:20;34.88;;;16.25;;
56173;SDS011;42058;52.308;20.924;2022-12-05T14:09:29;38.30;;;16.95;;
56173;SDS011;42058;52.308;20.924;2022-12-05T14:17:29;36.53;;;14.93;;
56173;SDS011;42058;52.308;20.924;2022-12-05T14:26:15;40.43;;;17.23;;
56173;SDS011;42058;52.308;20.924;2022-12-05T14:29:11;37.98;;;16.50;;
56173;SDS011;42058;52.308;20.924;2022-12-05T14:40:31;37.55;;;16.90;;
56173;SDS011;42058;52.308;20.924;2022-12-05T14:53:52;40.28;;;17.92;;
56173;SDS011;42058;52.308;20.924;2022-12-05T14:56:20;35.03;;;16.52;;
56173;SDS011;42058;52.308;20.924;2022-12-05T14:58:56;38.70;;;17.32;;
56173;SDS011;42058;52.308;20.924;2022-12-05T15:01:34;40.58;;;17.98;;
56173;SDS011;42058;52.308;20.924;2022-12-05T15:04:25;39.05;;;17.17;;
56173;SDS011;42058;52.308;20.924;2022-12-05T15:07:18;39.98;;;17.70;;
56173;SDS011;42058;52.308;20.924;2022-12-05T15:15:04;39.85;;;17.50;;
56173;SDS011;42058;52.308;20.924;2022-12-05T15:23:48;43.23;;;17.48;;
56173;SDS011;42058;52.308;20.924;2022-12-05T15:26:28;41.90;;;17.52;;
56173;SDS011;42058;52.308;20.924;2022-12-05T15:29:11;39.27;;;17.10;;
56173;SDS011;42058;52.308;20.924;2022-12-05T15:31:49;38.28;;;16.85;;
56173;SDS011;42058;52.308;20.924;2022-12-05T15:40:23;38.70;;;16.57;;
56173;SDS011;42058;52.308;20.924;2022-12-05T15:42:56;38.35;;;17.55;;
56173;SDS011;42058;52.308;20.924;2022-12-05T15:45:24;40.35;;;19.02;;
56173;SDS011;42058;52.308;20.924;2022-12-05T15:47:54;43.13;;;18.25;;
56173;SDS011;42058;52.308;20.924;2022-12-05T15:50:35;39.90;;;18.02;;
56173;SDS011;42058;52.308;20.924;2022-12-05T15:53:31;43.00;;;17.85;;
56173;SDS011;42058;52.308;20.924;2022-12-05T15:56:03;34.23;;;17.02;;
56173;SDS011;42058;52.308;20.924;2022-12-05T16:01:41;39.48;;;17.85;;
56173;SDS011;42058;52.308;20.924;2022-12-05T16:04:20;37.08;;;17.65;;
56173;SDS011;42058;52.308;20.924;2022-12-05T16:06:53;41.88;;;17.60;;
56173;SDS011;42058;52.308;20.924;2022-12-05T16:09:25;42.67;;;19.05;;
56173;SDS011;42058;52.308;20.924;2022-12-05T16:11:59;41.68;;;18.45;;
56173;SDS011;42058;52.308;20.924;2022-12-05T16:14:29;46.37;;;18.92;;
56173;SDS011;42058;52.308;20.924;2022-12-05T16:17:00;48.10;;;19.35;;
56173;SDS011;42058;52.308;20.924;2022-12-05T16:19:29;43.28;;;18.48;;
56173;SDS011;42058;52.308;20.924;2022-12-05T16:22:05;38.95;;;17.73;;
56173;SDS011;42058;52.308;20.924;2022-12-05T16:24:40;46.30;;;18.40;;
56173;SDS011;42058;52.308;20.924;2022-12-05T16:27:14;44.40;;;18.30;;
56173;SDS011;42058;52.308;20.924;2022-12-05T16:32:45;46.15;;;17.75;;
56173;SDS011;42058;52.308;20.924;2022-12-05T16:35:30;39.83;;;17.85;;
56173;SDS011;42058;52.308;20.924;2022-12-05T16:38:09;47.95;;;18.62;;
56173;SDS011;42058;52.308;20.924;2022-12-05T16:43:24;37.95;;;17.92;;
56173;SDS011;42058;52.308;20.924;2022-12-05T16:45:56;41.98;;;18.50;;
56173;SDS011;42058;52.308;20.924;2022-12-05T16:48:37;45.07;;;19.47;;
56173;SDS011;42058;52.308;20.924;2022-12-05T16:53:52;41.92;;;18.75;;
56173;SDS011;42058;52.308;20.924;2022-12-05T16:56:26;43.83;;;18.67;;
56173;SDS011;42058;52.308;20.924;2022-12-05T16:59:04;39.13;;;18.32;;
56173;SDS011;42058;52.308;20.924;2022-12-05T17:01:37;44.35;;;19.65;;
56173;SDS011;42058;52.308;20.924;2022-12-05T17:04:07;45.00;;;19.92;;
56173;SDS011;42058;52.308;20.924;2022-12-05T17:06:37;42.80;;;19.27;;
56173;SDS011;42058;52.308;20.924;2022-12-05T17:09:05;47.83;;;19.15;;
56173;SDS011;42058;52.308;20.924;2022-12-05T17:11:34;43.70;;;20.00;;
56173;SDS011;42058;52.308;20.924;2022-12-05T17:14:07;43.17;;;18.62;;
56173;SDS011;42058;52.308;20.924;2022-12-05T17:16:36;41.10;;;19.40;;